createdAt,value
2023-02-07T00:01:25.496Z,100.00
2023-02-07T00:03:55.088Z,100.00
2023-02-07T00:06:34.158Z,100.00
2023-02-07T00:09:07.034Z,100.00
2023-02-07T00:11:35.116Z,100.00
2023-02-07T00:14:02.317Z,100.00
2023-02-07T00:16:29.572Z,100.00
2023-02-07T00:18:59.043Z,100.00
2023-02-07T00:21:29.825Z,100.00
2023-02-07T00:23:57.288Z,100.00
2023-02-07T00:26:26.297Z,100.00
2023-02-07T00:28:54.419Z,100.00
2023-02-07T00:31:23.958Z,100.00
2023-02-07T00:33:52.092Z,100.00
2023-02-07T00:36:21.905Z,100.00
2023-02-07T00:38:49.395Z,100.00
2023-02-07T00:41:18.611Z,100.00
2023-02-07T00:43:47.471Z,100.00
2023-02-07T00:46:15.314Z,100.00
2023-02-07T00:48:41.991Z,100.00
2023-02-07T00:51:09.793Z,100.00
2023-02-07T00:53:37.787Z,100.00
2023-02-07T00:56:04.709Z,100.00
2023-02-07T00:58:31.667Z,100.00
2023-02-07T01:00:58.425Z,100.00
2023-02-07T01:03:25.277Z,100.00
2023-02-07T01:05:52.297Z,100.00
2023-02-07T01:08:19.162Z,100.00
2023-02-07T01:10:46.178Z,100.00
2023-02-07T01:13:14.096Z,100.00
2023-02-07T01:15:43.576Z,100.00
2023-02-07T01:18:11.382Z,100.00
2023-02-07T01:20:41.641Z,100.00
2023-02-07T01:23:13.327Z,100.00
2023-02-07T01:25:40.609Z,100.00
2023-02-07T01:28:08.889Z,100.00
2023-02-07T01:30:38.461Z,100.00
2023-02-07T01:33:05.404Z,100.00
2023-02-07T01:35:32.634Z,100.00
2023-02-07T01:37:59.374Z,100.00
2023-02-07T01:40:27.291Z,100.00
2023-02-07T01:42:53.932Z,100.00
2023-02-07T01:45:35.175Z,100.00
2023-02-07T01:48:08.715Z,100.00
2023-02-07T01:50:36.705Z,100.00
2023-02-07T01:53:06.228Z,100.00
2023-02-07T01:55:37.577Z,100.00
2023-02-07T01:58:07.099Z,100.00
2023-02-07T02:00:36.035Z,100.00
2023-02-07T02:03:03.455Z,100.00
2023-02-07T02:05:32.244Z,100.00
2023-02-07T02:07:59.426Z,100.00
2023-02-07T02:10:50.739Z,100.00
2023-02-07T02:13:28.593Z,100.00
2023-02-07T02:16:21.224Z,100.00
2023-02-07T02:19:08.780Z,100.00
2023-02-07T02:22:01.744Z,100.00
2023-02-07T02:24:41.186Z,100.00
2023-02-07T02:27:29.077Z,100.00
2023-02-07T02:30:18.696Z,100.00
2023-02-07T02:32:48.539Z,100.00
2023-02-07T02:35:31.125Z,100.00
2023-02-07T02:38:16.014Z,100.00
2023-02-07T02:40:52.178Z,100.00
2023-02-07T02:43:28.697Z,100.00
2023-02-07T02:46:04.678Z,100.00
2023-02-07T02:48:35.293Z,100.00
2023-02-07T02:51:02.494Z,100.00
2023-02-07T02:53:29.247Z,100.00
2023-02-07T02:56:14.828Z,100.00
2023-02-07T02:59:06.023Z,100.00
2023-02-07T03:01:45.160Z,100.00
2023-02-07T03:04:39.899Z,100.00
2023-02-07T03:07:28.602Z,100.00
2023-02-07T03:10:31.478Z,100.00
2023-02-07T03:13:21.029Z,100.00
2023-02-07T03:15:57.188Z,100.00
2023-02-07T03:18:55.911Z,100.00
2023-02-07T03:21:30.215Z,100.00
2023-02-07T03:24:00.562Z,100.00
2023-02-07T03:26:29.117Z,100.00
2023-02-07T03:28:57.401Z,100.00
2023-02-07T03:31:27.483Z,100.00
2023-02-07T03:33:59.126Z,100.00
2023-02-07T03:36:31.859Z,100.00
2023-02-07T03:38:59.088Z,100.00
2023-02-07T03:41:36.183Z,100.00
2023-02-07T03:44:07.184Z,100.00
2023-02-07T03:46:38.002Z,100.00
2023-02-07T03:49:08.092Z,100.00
2023-02-07T03:51:36.278Z,100.00
2023-02-07T03:54:03.189Z,100.00
2023-02-07T03:56:29.869Z,100.00
2023-02-07T03:58:57.370Z,100.00
2023-02-07T04:01:25.871Z,100.00
2023-02-07T04:03:52.930Z,100.00
2023-02-07T04:06:21.394Z,100.00
2023-02-07T04:08:48.238Z,100.00
2023-02-07T04:11:15.363Z,100.00
2023-02-07T04:13:42.318Z,100.00
2023-02-07T04:16:08.945Z,100.00
2023-02-07T04:18:36.268Z,100.00
2023-02-07T04:21:05.546Z,100.00
2023-02-07T04:23:33.586Z,100.00
2023-02-07T04:26:00.421Z,100.00
2023-02-07T04:28:28.088Z,100.00
2023-02-07T04:30:54.887Z,100.00
2023-02-07T04:33:21.963Z,100.00
2023-02-07T04:36:09.074Z,100.00
2023-02-07T04:38:36.326Z,100.00
2023-02-07T04:41:05.205Z,100.00
2023-02-07T04:43:33.645Z,100.00
2023-02-07T04:46:01.946Z,100.00
2023-02-07T04:48:28.797Z,100.00
2023-02-07T04:50:55.724Z,100.00
2023-02-07T04:53:22.662Z,100.00
2023-02-07T04:55:50.665Z,100.00
2023-02-07T04:58:17.441Z,100.00
2023-02-07T05:00:44.935Z,100.00
2023-02-07T05:03:12.175Z,100.00
2023-02-07T05:05:40.509Z,100.00
2023-02-07T05:08:07.478Z,100.00
2023-02-07T05:10:34.665Z,100.00
2023-02-07T05:13:01.842Z,100.00
2023-02-07T05:15:29.154Z,100.00
2023-02-07T05:17:57.122Z,100.00
2023-02-07T05:20:25.196Z,100.00
2023-02-07T05:22:52.389Z,100.00
2023-02-07T05:25:19.021Z,100.00
2023-02-07T05:27:45.868Z,100.00
2023-02-07T05:30:13.363Z,100.00
2023-02-07T05:32:58.696Z,100.00
2023-02-07T05:35:25.568Z,100.00
2023-02-07T05:37:52.176Z,100.00
2023-02-07T05:40:18.946Z,100.00
2023-02-07T05:42:45.647Z,100.00
2023-02-07T05:45:12.507Z,100.00
2023-02-07T05:47:39.680Z,100.00
2023-02-07T05:50:06.878Z,100.00
2023-02-07T05:52:35.689Z,100.00
2023-02-07T05:55:02.980Z,100.00
2023-02-07T05:57:29.986Z,100.00
2023-02-07T05:59:56.777Z,100.00
2023-02-07T06:02:23.890Z,100.00
2023-02-07T06:04:50.617Z,100.00
2023-02-07T06:07:17.321Z,100.00
2023-02-07T06:09:43.984Z,100.00
2023-02-07T06:12:11.100Z,100.00
2023-02-07T06:14:37.741Z,100.00
2023-02-07T06:17:04.357Z,100.00
2023-02-07T06:19:31.562Z,100.00
2023-02-07T06:21:58.657Z,100.00
2023-02-07T06:24:25.461Z,100.00
2023-02-07T06:26:52.321Z,100.00
2023-02-07T06:29:19.233Z,100.00
2023-02-07T06:31:46.037Z,100.00
2023-02-07T06:34:12.747Z,100.00
2023-02-07T06:36:39.409Z,100.00
2023-02-07T06:39:07.116Z,100.00
2023-02-07T06:41:33.970Z,100.00
2023-02-07T06:44:00.707Z,100.00
2023-02-07T06:46:27.417Z,100.00
2023-02-07T06:48:54.006Z,100.00
2023-02-07T06:51:20.603Z,100.00
2023-02-07T06:53:47.712Z,100.00
2023-02-07T06:56:14.987Z,100.00
2023-02-07T06:58:42.924Z,100.00
2023-02-07T07:01:09.711Z,100.00
2023-02-07T07:03:36.761Z,100.00
2023-02-07T07:06:03.671Z,100.00
2023-02-07T07:08:30.914Z,100.00
2023-02-07T07:10:57.701Z,100.00
2023-02-07T07:13:24.871Z,100.00
2023-02-07T07:15:52.354Z,100.00
2023-02-07T07:18:19.225Z,100.00
2023-02-07T07:20:47.201Z,100.00
2023-02-07T07:23:14.121Z,100.00
2023-02-07T07:25:42.351Z,100.00
2023-02-07T07:28:10.032Z,100.00
2023-02-07T07:30:36.743Z,100.00
2023-02-07T07:33:04.864Z,100.00
2023-02-07T07:35:35.322Z,100.00
2023-02-07T07:38:02.044Z,100.00
2023-02-07T07:40:28.950Z,100.00
2023-02-07T07:42:56.250Z,100.00
2023-02-07T07:45:35.432Z,100.00
2023-02-07T07:48:02.322Z,100.00
2023-02-07T07:50:30.278Z,100.00
2023-02-07T07:52:58.820Z,100.00
2023-02-07T07:55:25.747Z,100.00
2023-02-07T07:57:53.555Z,100.00
2023-02-07T08:00:20.543Z,100.00
2023-02-07T08:02:47.301Z,100.00
2023-02-07T08:05:14.168Z,100.00
2023-02-07T08:07:41.278Z,100.00
2023-02-07T08:10:09.879Z,100.00
2023-02-07T08:12:36.937Z,100.00
2023-02-07T08:15:04.054Z,100.00
2023-02-07T08:17:31.977Z,100.00
2023-02-07T08:19:59.023Z,100.00
2023-02-07T08:22:25.995Z,100.00
2023-02-07T08:24:52.860Z,100.00
2023-02-07T08:27:19.710Z,100.00
2023-02-07T08:29:46.336Z,100.00
2023-02-07T08:32:13.166Z,100.00
2023-02-07T08:34:43.760Z,100.00
2023-02-07T08:37:13.424Z,100.00
2023-02-07T08:39:40.231Z,100.00
2023-02-07T08:42:08.300Z,100.00
2023-02-07T08:44:36.067Z,100.00
2023-02-07T08:47:03.570Z,100.00
2023-02-07T08:49:30.422Z,100.00
2023-02-07T08:51:57.177Z,100.00
2023-02-07T08:54:24.191Z,100.00
2023-02-07T08:56:50.932Z,100.00
2023-02-07T08:59:18.096Z,100.00
2023-02-07T09:01:44.854Z,100.00
2023-02-07T09:04:11.629Z,100.00
2023-02-07T09:06:39.585Z,100.00
2023-02-07T09:09:07.236Z,100.00
2023-02-07T09:11:34.377Z,100.00
2023-02-07T09:14:02.701Z,100.00
2023-02-07T09:16:29.682Z,100.00
2023-02-07T09:18:56.933Z,100.00
2023-02-07T09:21:24.036Z,100.00
2023-02-07T09:23:50.938Z,100.00
2023-02-07T09:26:21.464Z,100.00
2023-02-07T09:28:48.692Z,100.00
2023-02-07T09:31:16.444Z,100.00
2023-02-07T09:33:43.894Z,100.00
2023-02-07T09:36:26.454Z,100.00
2023-02-07T09:38:54.269Z,100.00
2023-02-07T09:41:39.217Z,100.00
2023-02-07T09:44:25.695Z,100.00
2023-02-07T09:47:05.311Z,100.00
2023-02-07T09:49:51.899Z,100.00
2023-02-07T09:52:24.356Z,100.00
2023-02-07T09:54:54.350Z,100.00
2023-02-07T09:57:37.996Z,100.00
2023-02-07T10:00:19.429Z,100.00
2023-02-07T10:02:55.662Z,100.00
2023-02-07T10:05:43.835Z,100.00
2023-02-07T10:08:16.251Z,100.00
2023-02-07T10:11:11.145Z,100.00
2023-02-07T10:13:53.643Z,100.00
2023-02-07T10:16:54.857Z,100.00
2023-02-07T10:19:46.070Z,100.00
2023-02-07T10:22:28.774Z,100.00
2023-02-07T10:25:02.688Z,100.00
2023-02-07T10:27:36.619Z,100.00
2023-02-07T10:30:27.455Z,100.00
2023-02-07T10:32:59.939Z,100.00
2023-02-07T10:35:47.182Z,100.00
2023-02-07T10:38:40.255Z,100.00
2023-02-07T10:41:17.032Z,100.00
2023-02-07T10:43:46.936Z,100.00
2023-02-07T10:46:16.413Z,100.00
2023-02-07T10:48:43.267Z,100.00
2023-02-07T10:51:26.602Z,100.00
2023-02-07T10:54:08.023Z,100.00
2023-02-07T10:56:42.003Z,100.00
2023-02-07T10:59:46.230Z,99.99
2023-02-07T11:02:31.806Z,99.08
2023-02-07T11:05:17.010Z,97.90
2023-02-07T11:08:16.656Z,97.01
2023-02-07T11:10:45.314Z,98.63
2023-02-07T11:13:22.183Z,98.99
2023-02-07T11:16:04.572Z,98.79
2023-02-07T11:18:31.316Z,98.64
2023-02-07T11:20:58.139Z,96.62
2023-02-07T11:23:25.371Z,97.91
2023-02-07T11:25:55.575Z,94.92
2023-02-07T11:28:31.254Z,95.48
2023-02-07T11:31:05.697Z,92.95
2023-02-07T11:33:36.691Z,93.59
2023-02-07T11:36:12.613Z,91.38
2023-02-07T11:38:59.713Z,93.33
2023-02-07T11:41:29.343Z,90.69
2023-02-07T11:44:13.961Z,94.08
2023-02-07T11:46:45.605Z,94.11
2023-02-07T11:49:25.736Z,90.77
2023-02-07T11:51:55.640Z,92.09
2023-02-07T11:54:22.909Z,89.78
2023-02-07T11:56:55.623Z,89.77
2023-02-07T11:59:26.845Z,87.97
2023-02-07T12:02:15.801Z,87.01
2023-02-07T12:04:43.245Z,86.58
2023-02-07T12:07:35.947Z,88.43
2023-02-07T12:10:14.262Z,85.59
2023-02-07T12:12:56.577Z,88.20
2023-02-07T12:15:28.305Z,87.22
2023-02-07T12:18:06.011Z,87.70
2023-02-07T12:20:38.697Z,87.54
2023-02-07T12:26:32.809Z,86.20
2023-02-07T12:29:31.262Z,85.83
2023-02-07T12:32:33.447Z,84.94
2023-02-07T12:35:23.272Z,85.41
2023-02-07T12:38:13.734Z,84.36
2023-02-07T12:40:44.626Z,83.24
2023-02-07T12:43:21.448Z,83.32
2023-02-07T12:46:00.752Z,82.35
2023-02-07T12:48:57.223Z,82.68
2023-02-07T12:51:39.254Z,83.86
2023-02-07T12:54:14.761Z,84.10
2023-02-07T12:57:09.285Z,83.11
2023-02-07T12:59:53.149Z,84.54
2023-02-07T13:02:57.141Z,82.95
2023-02-07T13:05:52.105Z,81.74
2023-02-07T13:08:58.303Z,79.66
2023-02-07T13:11:44.077Z,79.34
2023-02-07T13:14:15.185Z,76.66
2023-02-07T13:17:03.336Z,76.65
2023-02-07T13:19:49.655Z,77.37
2023-02-07T13:22:36.631Z,78.65
2023-02-07T13:25:07.856Z,79.27
2023-02-07T13:27:37.019Z,76.90
2023-02-07T13:30:03.971Z,77.65
2023-02-07T13:32:30.810Z,75.50
2023-02-07T13:35:06.304Z,74.89
2023-02-07T13:37:47.407Z,75.71
2023-02-07T13:40:40.337Z,74.08
2023-02-07T13:43:13.248Z,75.45
2023-02-07T13:46:12.072Z,75.58
2023-02-07T13:48:45.334Z,72.71
2023-02-07T13:51:30.515Z,73.37
2023-02-07T13:54:12.595Z,72.12
2023-02-07T13:56:57.864Z,71.64
2023-02-07T13:59:39.167Z,72.41
2023-02-07T14:02:18.988Z,69.85
2023-02-07T14:04:52.364Z,69.67
2023-02-07T14:07:30.018Z,71.09
2023-02-07T14:09:59.254Z,70.18
2023-02-07T14:12:31.506Z,70.66
2023-02-07T14:15:43.799Z,70.21
2023-02-07T14:18:31.653Z,71.62
2023-02-07T14:21:05.438Z,70.87
2023-02-07T14:23:50.806Z,71.25
2023-02-07T14:26:36.707Z,70.11
2023-02-07T14:29:24.560Z,69.09
2023-02-07T14:32:26.627Z,69.35
2023-02-07T14:35:17.175Z,69.35
2023-02-07T14:37:53.686Z,68.56
2023-02-07T14:40:39.701Z,68.81
2023-02-07T14:43:13.077Z,67.73
2023-02-07T14:46:02.478Z,67.36
2023-02-07T14:48:51.133Z,69.18
2023-02-07T14:51:32.964Z,68.28
2023-02-07T14:54:06.487Z,68.29
2023-02-07T14:57:10.339Z,67.00
2023-02-07T14:59:59.002Z,67.21
2023-02-07T15:02:36.621Z,67.40
2023-02-07T15:05:22.082Z,67.93
2023-02-07T15:07:56.113Z,69.56
2023-02-07T15:10:27.091Z,68.35
2023-02-07T15:12:55.172Z,69.05
2023-02-07T15:15:24.727Z,69.37
2023-02-07T15:17:53.344Z,69.23
2023-02-07T15:20:26.810Z,68.41
2023-02-07T15:22:55.522Z,69.05
2023-02-07T15:25:23.166Z,69.03
2023-02-07T15:28:25.236Z,68.75
2023-02-07T15:31:02.845Z,70.12
2023-02-07T15:33:36.958Z,69.37
2023-02-07T15:36:27.763Z,69.06
2023-02-07T15:38:55.848Z,67.50
2023-02-07T15:41:24.530Z,68.75
2023-02-07T15:44:21.996Z,68.57
2023-02-07T15:46:52.621Z,68.56
2023-02-07T15:49:32.019Z,69.31
2023-02-07T15:52:23.255Z,69.69
2023-02-07T15:54:54.465Z,70.36
2023-02-07T15:57:29.507Z,70.83
2023-02-07T16:00:02.241Z,70.34
2023-02-07T16:02:49.822Z,71.83
2023-02-07T16:05:32.868Z,72.36
2023-02-07T16:08:01.688Z,72.37
2023-02-07T16:10:40.495Z,73.67
2023-02-07T16:13:15.010Z,74.63
2023-02-07T16:16:19.746Z,74.24
2023-02-07T16:18:50.354Z,73.88
2023-02-07T16:21:22.694Z,74.45
2023-02-07T16:23:52.875Z,74.35
2023-02-07T16:26:23.649Z,74.45
2023-02-07T16:28:50.485Z,74.64
2023-02-07T16:31:17.537Z,75.94
2023-02-07T16:33:44.539Z,76.99
2023-02-07T16:36:16.840Z,77.14
2023-02-07T16:38:45.192Z,77.39
2023-02-07T16:41:31.992Z,79.10
2023-02-07T16:44:01.379Z,79.56
2023-02-07T16:46:30.191Z,80.31
2023-02-07T16:48:58.646Z,80.13
2023-02-07T16:51:26.081Z,79.92
2023-02-07T16:53:52.823Z,80.18
2023-02-07T16:56:28.258Z,80.29
2023-02-07T16:58:55.088Z,80.75
2023-02-07T17:01:23.266Z,80.78
2023-02-07T17:03:51.897Z,80.76
2023-02-07T17:06:21.342Z,81.71
2023-02-07T17:08:48.963Z,81.95
2023-02-07T17:11:26.416Z,82.34
2023-02-07T17:13:55.127Z,83.44
2023-02-07T17:16:24.397Z,83.90
2023-02-07T17:18:52.302Z,83.25
2023-02-07T17:21:22.424Z,83.56
2023-02-07T17:23:50.081Z,82.55
2023-02-07T17:26:27.743Z,81.53
2023-02-07T17:28:55.441Z,81.34
2023-02-07T17:31:22.658Z,82.60
2023-02-07T17:33:51.734Z,83.10
2023-02-07T17:36:19.540Z,84.48
2023-02-07T17:38:46.801Z,84.47
2023-02-07T17:41:14.745Z,83.65
2023-02-07T17:43:42.096Z,82.95
2023-02-07T17:46:17.880Z,83.17
2023-02-07T17:48:49.188Z,84.69
2023-02-07T17:51:26.725Z,85.15
2023-02-07T17:53:54.757Z,85.15
2023-02-07T17:56:30.315Z,85.16
2023-02-07T17:59:00.426Z,85.27
2023-02-07T18:01:27.897Z,85.38
2023-02-07T18:03:56.084Z,85.46
2023-02-07T18:06:25.531Z,85.47
2023-02-07T18:08:53.767Z,86.57
2023-02-07T18:11:22.556Z,86.76
2023-02-07T18:13:50.380Z,86.55
2023-02-07T18:16:23.878Z,86.59
2023-02-07T18:18:53.091Z,87.17
2023-02-07T18:21:22.513Z,87.91
2023-02-07T18:23:49.598Z,87.91
2023-02-07T18:26:16.782Z,89.09
2023-02-07T18:28:44.007Z,89.92
2023-02-07T18:31:17.418Z,89.70
2023-02-07T18:33:45.106Z,88.81
2023-02-07T18:36:13.605Z,88.70
2023-02-07T18:38:40.421Z,89.75
2023-02-07T18:41:21.946Z,89.53
2023-02-07T18:43:49.534Z,89.20
2023-02-07T18:46:19.276Z,89.37
2023-02-07T18:48:46.929Z,89.56
2023-02-07T18:51:15.922Z,90.66
2023-02-07T18:53:43.160Z,91.03
2023-02-07T18:56:17.034Z,90.90
2023-02-07T18:58:46.935Z,91.45
2023-02-07T19:01:21.528Z,91.35
2023-02-07T19:03:54.248Z,91.16
2023-02-07T19:06:23.204Z,91.54
2023-02-07T19:08:50.164Z,91.84
2023-02-07T19:11:17.039Z,92.68
2023-02-07T19:13:43.902Z,92.83
2023-02-07T19:16:19.140Z,92.41
2023-02-07T19:18:47.035Z,93.02
2023-02-07T19:21:17.610Z,92.07
2023-02-07T19:23:44.562Z,92.31
2023-02-07T19:26:12.008Z,92.36
2023-02-07T19:28:39.344Z,93.02
2023-02-07T19:31:08.400Z,93.38
2023-02-07T19:33:36.244Z,93.80
2023-02-07T19:36:08.550Z,93.48
2023-02-07T19:38:35.917Z,93.57
2023-02-07T19:41:03.911Z,93.65
2023-02-07T19:43:31.359Z,94.70
2023-02-07T19:45:58.208Z,94.61
2023-02-07T19:48:25.172Z,94.64
2023-02-07T19:51:06.597Z,94.91
2023-02-07T19:53:34.175Z,95.19
2023-02-07T19:56:02.489Z,96.05
2023-02-07T19:58:33.680Z,97.17
2023-02-07T20:01:00.755Z,96.58
2023-02-07T20:03:29.302Z,97.26
2023-02-07T20:06:04.023Z,95.82
2023-02-07T20:08:33.955Z,95.37
2023-02-07T20:11:05.787Z,95.70
2023-02-07T20:13:36.216Z,95.47
2023-02-07T20:16:05.832Z,95.63
2023-02-07T20:18:33.461Z,96.31
2023-02-07T20:21:11.938Z,96.55
2023-02-07T20:23:40.224Z,95.91
2023-02-07T20:26:17.289Z,95.73
2023-02-07T20:28:46.225Z,95.46
2023-02-07T20:31:15.377Z,96.01
2023-02-07T20:33:50.734Z,94.50
2023-02-07T20:36:21.698Z,94.19
2023-02-07T20:38:49.943Z,94.40
2023-02-07T20:41:29.803Z,93.78
2023-02-07T20:44:04.749Z,95.80
2023-02-07T20:46:34.575Z,95.90
2023-02-07T20:49:13.115Z,96.69
2023-02-07T20:51:42.535Z,96.37
2023-02-07T20:54:11.616Z,96.66
2023-02-07T20:56:38.826Z,97.48
2023-02-07T20:59:07.443Z,97.98
2023-02-07T21:01:35.462Z,97.97
2023-02-07T21:04:04.827Z,98.99
2023-02-07T21:06:33.127Z,98.71
2023-02-07T21:09:01.684Z,98.72
2023-02-07T21:11:33.981Z,98.99
2023-02-07T21:14:05.342Z,99.26
2023-02-07T21:16:32.562Z,98.68
2023-02-07T21:18:59.967Z,98.60
2023-02-07T21:21:27.421Z,97.67
2023-02-07T21:23:55.190Z,97.83
2023-02-07T21:26:22.316Z,97.71
2023-02-07T21:28:49.721Z,97.39
2023-02-07T21:31:20.082Z,98.08
2023-02-07T21:33:49.554Z,97.87
2023-02-07T21:36:19.188Z,99.68
2023-02-07T21:38:48.842Z,98.17
2023-02-07T21:41:19.643Z,98.59
2023-02-07T21:43:46.449Z,97.92
2023-02-07T21:46:18.096Z,98.27
2023-02-07T21:48:47.731Z,97.65
2023-02-07T21:51:18.277Z,98.08
2023-02-07T21:53:46.536Z,98.28
2023-02-07T21:56:16.296Z,98.97
2023-02-07T21:58:44.395Z,99.19
2023-02-07T22:01:14.242Z,100.00
2023-02-07T22:03:43.303Z,99.90
2023-02-07T22:06:12.988Z,99.59
2023-02-07T22:08:40.788Z,99.16
2023-02-07T22:11:12.347Z,98.37
2023-02-07T22:13:42.283Z,98.85
2023-02-07T22:16:13.254Z,99.76
2023-02-07T22:18:40.999Z,98.90
2023-02-07T22:21:16.346Z,100.00
2023-02-07T22:23:43.735Z,100.00
2023-02-07T22:26:11.007Z,100.00
2023-02-07T22:28:39.821Z,100.00
2023-02-07T22:31:15.138Z,100.00
2023-02-07T22:33:42.942Z,99.11
2023-02-07T22:36:15.286Z,98.95
2023-02-07T22:38:42.661Z,99.19
2023-02-07T22:41:09.876Z,99.49
2023-02-07T22:43:39.836Z,98.97
2023-02-07T22:46:11.169Z,98.63
2023-02-07T22:48:38.489Z,98.39
2023-02-07T22:51:19.371Z,99.52
2023-02-07T22:53:47.438Z,99.99
2023-02-07T22:56:14.404Z,100.00
2023-02-07T22:58:41.957Z,100.00
2023-02-07T23:01:19.155Z,100.00
2023-02-07T23:03:46.199Z,100.00
2023-02-07T23:06:13.110Z,100.00
2023-02-07T23:08:39.822Z,100.00
2023-02-07T23:11:11.027Z,100.00
2023-02-07T23:13:40.065Z,100.00
2023-02-07T23:16:19.742Z,98.30
2023-02-07T23:18:47.276Z,96.96
2023-02-07T23:21:18.130Z,96.08
2023-02-07T23:23:48.414Z,96.12
2023-02-07T23:26:17.015Z,96.04
2023-02-07T23:28:45.063Z,95.93
2023-02-07T23:31:16.396Z,96.16
2023-02-07T23:33:43.633Z,95.04
2023-02-07T23:36:12.264Z,95.15
2023-02-07T23:38:42.424Z,95.42
2023-02-07T23:41:09.697Z,96.85
2023-02-07T23:43:38.649Z,97.29
2023-02-07T23:46:07.509Z,97.42
2023-02-07T23:48:37.815Z,98.21
2023-02-07T23:51:06.722Z,98.43
2023-02-07T23:53:36.219Z,98.45
2023-02-07T23:56:05.378Z,97.87
2023-02-07T23:58:32.943Z,98.18
